Time;durP1;ratioP1;P1;durP2;ratioP2;P2;SDS_P1;SDS_P2;PMS_P1;PMS_P2;Temp;Humidity;BMP_temperature;BMP_pressure;BME280_temperature;BME280_humidity;BME280_pressure;Samples;Min_cycle;Max_cycle;Signal;HPM_P1;HPM_P2
2021/05/06 00:04:39;;;;;;;;;;;6.30;99.90;;;;;;5097893;28;19961;-73
2021/05/06 00:34:08;;;;;;;;;;;6.30;99.90;;;;;;5096987;28;19908;-72
2021/05/06 00:36:34;;;;;;;;;;;6.20;99.90;;;;;;5095977;28;19908;-72
2021/05/06 00:39:10;;;;;;;;;;;6.20;99.90;;;;;;5096105;28;20264;-72
2021/05/06 00:41:51;;;;;;;;;;;6.10;99.90;;;;;;5095326;28;19908;-74
2021/05/06 00:55:03;;;;;;;;;;;6.10;99.90;;;;;;5096332;28;20371;-73
2021/05/06 01:05:09;;;;;;;;;;;6.20;99.90;;;;;;5096023;28;19969;-75
2021/05/06 01:12:29;;;;;;;;;;;6.20;99.90;;;;;;5095681;28;19912;-73
2021/05/06 01:14:55;;;;;;;;;;;6.20;99.90;;;;;;5095629;28;20265;-75
2021/05/06 01:17:20;;;;;;;;;;;6.20;99.90;;;;;;5095195;28;19923;-73
2021/05/06 01:19:46;;;;;;;;;;;6.10;99.90;;;;;;5095940;28;19915;-72
2021/05/06 01:22:11;;;;;;;;;;;6.10;99.90;;;;;;5094385;28;20272;-72
2021/05/06 01:24:37;;;;;;;;;;;6.00;99.90;;;;;;5095824;28;20349;-73
2021/05/06 01:27:11;;;;;;;;;;;6.10;99.90;;;;;;5095733;28;20382;-72
2021/05/06 01:29:43;;;;;;;;;;;6.00;99.90;;;;;;5095021;28;19919;-73
2021/05/06 01:32:29;;;;;;;;;;;6.10;99.90;;;;;;5095406;28;20057;-74
2021/05/06 01:34:58;;;;;;;;;;;6.10;99.90;;;;;;5084566;28;19961;-74
2021/05/06 01:37:56;;;;;;;;;;;6.10;99.90;;;;;;5095530;28;20306;-73
2021/05/06 01:43:10;;;;;;;;;;;6.10;99.90;;;;;;5095721;28;19915;-74
2021/05/06 02:00:12;;;;;;;;;;;6.10;99.90;;;;;;5087743;28;19931;-72
2021/05/06 02:02:16;;;;;;;;;;;6.10;99.90;;;;;;5088530;28;19953;-71
2021/05/06 02:04:41;;;;;;;;;;;6.10;99.90;;;;;;5095109;28;19908;-72
2021/05/06 02:07:07;;;;;;;;;;;6.10;99.90;;;;;;5094332;28;19908;-72
2021/05/06 02:09:33;;;;;;;;;;;6.10;99.90;;;;;;5093429;28;20019;-72
2021/05/06 02:11:58;;;;;;;;;;;6.10;99.90;;;;;;5094640;28;20350;-73
2021/05/06 02:14:24;;;;;;;;;;;6.00;99.90;;;;;;5092953;28;19908;-72
2021/05/06 02:16:50;;;;;;;;;;;6.00;99.90;;;;;;5093341;28;19907;-72
2021/05/06 02:19:24;;;;;;;;;;;6.00;99.90;;;;;;5093577;28;19915;-73
2021/05/06 02:21:50;;;;;;;;;;;5.80;99.90;;;;;;5093637;28;19961;-72
2021/05/06 02:24:15;;;;;;;;;;;5.80;99.90;;;;;;5093021;28;19908;-73
2021/05/06 02:26:41;;;;;;;;;;;5.70;99.90;;;;;;5094621;28;19908;-73
2021/05/06 02:29:06;;;;;;;;;;;5.70;99.90;;;;;;5094288;28;19930;-72
2021/05/06 02:31:32;;;;;;;;;;;5.70;99.90;;;;;;5092930;28;19918;-72
2021/05/06 02:33:57;;;;;;;;;;;5.60;99.90;;;;;;5094453;28;19912;-72
2021/05/06 02:36:23;;;;;;;;;;;5.60;99.90;;;;;;5094985;28;19904;-74
2021/05/06 02:38:48;;;;;;;;;;;5.60;99.90;;;;;;5093896;28;20002;-72
2021/05/06 02:41:14;;;;;;;;;;;5.50;99.90;;;;;;5094353;28;19926;-73
2021/05/06 02:43:39;;;;;;;;;;;5.50;99.90;;;;;;5093639;28;20463;-73
2021/05/06 02:46:05;;;;;;;;;;;5.50;99.90;;;;;;5094022;28;19908;-73
2021/05/06 02:48:30;;;;;;;;;;;5.50;99.90;;;;;;5092283;28;19908;-74
2021/05/06 02:50:59;;;;;;;;;;;5.50;99.90;;;;;;5093592;28;19912;-73
2021/05/06 02:53:28;;;;;;;;;;;5.50;99.90;;;;;;5093792;28;20360;-73
2021/05/06 02:56:15;;;;;;;;;;;5.40;99.90;;;;;;5092086;28;19908;-74
2021/05/06 02:59:09;;;;;;;;;;;5.50;99.90;;;;;;5092462;28;19934;-73
2021/05/06 03:04:18;;;;;;;;;;;5.40;99.90;;;;;;5094009;28;19957;-73
2021/05/06 03:06:52;;;;;;;;;;;5.40;99.90;;;;;;5093771;28;19963;-73
2021/05/06 03:12:43;;;;;;;;;;;5.40;99.90;;;;;;5091686;28;19920;-73
2021/05/06 03:23:22;;;;;;;;;;;5.40;99.90;;;;;;5093449;28;19922;-73
2021/05/06 03:25:48;;;;;;;;;;;5.30;99.90;;;;;;5092671;28;20003;-73
2021/05/06 03:28:20;;;;;;;;;;;5.40;99.90;;;;;;5093091;28;19951;-73
2021/05/06 03:49:46;;;;;;;;;;;5.30;99.90;;;;;;5093114;28;19912;-74
2021/05/06 04:12:15;;;;;;;;;;;5.20;99.90;;;;;;5092756;28;19923;-72
2021/05/06 04:17:19;;;;;;;;;;;5.20;99.90;;;;;;5090299;28;19916;-74
2021/05/06 04:36:15;;;;;;;;;;;5.60;99.90;;;;;;5088434;28;19950;-73
2021/05/06 04:38:40;;;;;;;;;;;5.70;99.90;;;;;;5092745;28;19999;-73
2021/05/06 04:41:37;;;;;;;;;;;5.80;99.90;;;;;;5091196;28;19951;-73
2021/05/06 04:50:18;;;;;;;;;;;5.80;99.90;;;;;;5096962;28;20394;-74
2021/05/06 04:55:07;;;;;;;;;;;6.00;99.90;;;;;;5096139;28;20326;-74
2021/05/06 05:05:26;;;;;;;;;;;6.10;99.90;;;;;;5096084;28;20420;-72
2021/05/06 05:07:56;;;;;;;;;;;6.30;99.90;;;;;;5094853;28;19908;-73
2021/05/06 05:13:15;;;;;;;;;;;6.50;99.90;;;;;;5114416;28;19908;-73
2021/05/06 05:18:41;;;;;;;;;;;7.30;99.90;;;;;;5114803;28;19923;-73
2021/05/06 05:21:19;;;;;;;;;;;7.50;99.90;;;;;;5098985;28;20314;-73
2021/05/06 05:23:51;;;;;;;;;;;7.40;99.90;;;;;;5098635;28;19912;-72
2021/05/06 05:26:16;;;;;;;;;;;7.30;99.90;;;;;;5095786;28;20279;-73
2021/05/06 05:28:42;;;;;;;;;;;7.10;99.90;;;;;;5096026;28;19914;-73
2021/05/06 05:31:07;;;;;;;;;;;7.00;99.90;;;;;;5095438;28;20011;-73
2021/05/06 05:33:44;;;;;;;;;;;6.90;99.90;;;;;;5094933;28;20006;-73
2021/05/06 05:54:47;;;;;;;;;;;7.00;99.90;;;;;;5075419;28;20332;-76
2021/05/06 05:57:12;;;;;;;;;;;7.20;99.90;;;;;;5075269;28;20253;-74
2021/05/06 05:59:38;;;;;;;;;;;7.30;99.90;;;;;;5090731;28;19919;-75
2021/05/06 06:02:04;;;;;;;;;;;7.40;99.90;;;;;;5084519;28;19916;-74
2021/05/06 06:04:29;;;;;;;;;;;7.50;99.90;;;;;;5095137;28;19952;-75
2021/05/06 06:06:55;;;;;;;;;;;7.60;99.90;;;;;;5093882;28;19915;-76
2021/05/06 06:09:21;;;;;;;;;;;7.60;99.90;;;;;;5094629;28;19949;-76
2021/05/06 06:11:46;;;;;;;;;;;7.80;99.90;;;;;;5096600;28;19907;-78
2021/05/06 06:14:12;;;;;;;;;;;7.90;99.90;;;;;;5094773;28;19940;-76
2021/05/06 06:16:40;;;;;;;;;;;8.00;99.90;;;;;;5094511;28;19948;-76
2021/05/06 06:19:06;;;;;;;;;;;8.10;99.90;;;;;;5093986;28;19908;-76
2021/05/06 06:24:04;;;;;;;;;;;8.50;99.90;;;;;;5095265;28;19907;-76
2021/05/06 06:26:30;;;;;;;;;;;8.80;99.90;;;;;;5094084;28;19908;-75
2021/05/06 06:29:01;;;;;;;;;;;9.00;99.90;;;;;;5093899;28;19911;-76
2021/05/06 06:31:30;;;;;;;;;;;9.20;99.90;;;;;;5087465;28;19908;-75
2021/05/06 06:33:57;;;;;;;;;;;9.30;99.90;;;;;;5094422;28;20387;-76
2021/05/06 06:36:23;;;;;;;;;;;9.60;99.90;;;;;;5094560;28;19969;-77
2021/05/06 06:38:53;;;;;;;;;;;9.70;99.90;;;;;;5095097;28;19915;-77
2021/05/06 06:41:18;;;;;;;;;;;9.90;99.90;;;;;;5093586;28;19991;-76
2021/05/06 06:43:46;;;;;;;;;;;10.20;99.90;;;;;;5092574;28;19963;-75
2021/05/06 06:46:13;;;;;;;;;;;10.40;99.90;;;;;;5092642;28;19908;-76
2021/05/06 06:48:39;;;;;;;;;;;10.70;99.90;;;;;;5092644;28;19912;-76
2021/05/06 06:51:05;;;;;;;;;;;10.70;99.90;;;;;;5092696;28;20003;-76
2021/05/06 06:53:30;;;;;;;;;;;10.80;99.90;;;;;;5094230;28;20360;-75
2021/05/06 06:55:56;;;;;;;;;;;10.70;99.90;;;;;;5094268;28;19904;-75
2021/05/06 06:58:22;;;;;;;;;;;10.50;99.90;;;;;;5094305;28;19961;-76
2021/05/06 07:00:47;;;;;;;;;;;10.50;99.90;;;;;;5093377;28;19904;-76
2021/05/06 07:03:13;;;;;;;;;;;10.90;99.90;;;;;;5093050;28;20383;-77
2021/05/06 07:05:40;;;;;;;;;;;11.40;99.90;;;;;;5083914;28;19908;-76
2021/05/06 07:08:18;;;;;;;;;;;11.70;99.90;;;;;;5091063;28;19970;-76
2021/05/06 07:10:45;;;;;;;;;;;11.90;99.90;;;;;;5104200;28;19915;-76
2021/05/06 07:13:11;;;;;;;;;;;11.90;99.90;;;;;;5103132;28;19915;-76
2021/05/06 07:15:36;;;;;;;;;;;11.80;99.90;;;;;;5100258;28;19908;-78
2021/05/06 07:18:02;;;;;;;;;;;11.60;99.90;;;;;;5098849;28;19947;-78
2021/05/06 07:20:28;;;;;;;;;;;11.40;99.90;;;;;;5098387;28;19926;-78
2021/05/06 07:22:53;;;;;;;;;;;11.20;99.90;;;;;;5096435;28;19930;-78
2021/05/06 07:25:19;;;;;;;;;;;11.00;99.90;;;;;;5095239;28;19966;-78
2021/05/06 07:27:44;;;;;;;;;;;10.80;99.90;;;;;;5093552;28;20367;-78
2021/05/06 07:30:10;;;;;;;;;;;10.80;99.90;;;;;;5090009;28;19938;-78
2021/05/06 07:32:37;;;;;;;;;;;10.70;99.90;;;;;;5091419;28;19927;-77
2021/05/06 07:35:03;;;;;;;;;;;10.60;99.90;;;;;;5098623;28;19908;-78
2021/05/06 07:37:28;;;;;;;;;;;10.60;99.90;;;;;;5096754;28;20033;-78
2021/05/06 07:39:54;;;;;;;;;;;10.70;99.90;;;;;;5096132;28;19908;-78
2021/05/06 07:42:19;;;;;;;;;;;10.80;99.90;;;;;;5098186;28;19908;-78
2021/05/06 07:44:45;;;;;;;;;;;10.70;99.90;;;;;;5095107;28;20397;-77
2021/05/06 07:47:11;;;;;;;;;;;10.70;99.90;;;;;;5095062;28;20003;-78
2021/05/06 07:49:37;;;;;;;;;;;10.90;99.90;;;;;;5095809;28;19912;-78
2021/05/06 07:52:03;;;;;;;;;;;11.00;99.90;;;;;;5093195;28;19916;-79
2021/05/06 07:54:29;;;;;;;;;;;11.10;99.90;;;;;;5094343;28;20000;-78
2021/05/06 07:56:54;;;;;;;;;;;11.10;99.90;;;;;;5079676;28;19904;-78
2021/05/06 07:59:20;;;;;;;;;;;11.00;99.90;;;;;;5094019;28;19904;-79
2021/05/06 08:01:45;;;;;;;;;;;11.00;99.90;;;;;;5091504;28;20356;-79
2021/05/06 08:04:11;;;;;;;;;;;11.00;99.90;;;;;;5089983;28;19908;-79
2021/05/06 08:06:36;;;;;;;;;;;11.20;99.90;;;;;;5090416;28;20280;-79
2021/05/06 08:09:03;;;;;;;;;;;11.30;99.90;;;;;;5094548;28;19953;-79
2021/05/06 08:11:28;;;;;;;;;;;11.30;99.90;;;;;;5088655;28;19991;-78
2021/05/06 08:13:54;;;;;;;;;;;11.20;99.90;;;;;;5102414;28;19943;-78
2021/05/06 08:16:19;;;;;;;;;;;11.00;99.90;;;;;;5093289;28;20383;-78
2021/05/06 08:18:45;;;;;;;;;;;10.70;99.90;;;;;;5093997;28;19916;-78
2021/05/06 08:21:10;;;;;;;;;;;10.90;99.90;;;;;;5095737;28;19914;-78
2021/05/06 08:23:36;;;;;;;;;;;11.20;99.90;;;;;;5095710;28;20277;-77
2021/05/06 08:26:01;;;;;;;;;;;11.40;99.90;;;;;;5096160;28;20352;-78
2021/05/06 08:28:27;;;;;;;;;;;11.50;99.90;;;;;;5091860;28;19908;-77
2021/05/06 08:30:53;;;;;;;;;;;11.30;99.90;;;;;;5094658;28;19955;-78
2021/05/06 08:33:18;;;;;;;;;;;11.30;99.90;;;;;;5093936;28;19938;-78
2021/05/06 08:35:44;;;;;;;;;;;11.50;99.90;;;;;;5094476;28;20359;-79
2021/05/06 08:38:09;;;;;;;;;;;11.50;99.90;;;;;;5095104;28;20003;-76
2021/05/06 08:40:36;;;;;;;;;;;11.80;99.90;;;;;;5091873;28;19908;-78
2021/05/06 08:43:06;;;;;;;;;;;12.30;99.90;;;;;;5090964;28;19930;-79
2021/05/06 08:45:35;;;;;;;;;;;12.90;99.90;;;;;;5091389;28;19915;-77
2021/05/06 08:48:01;;;;;;;;;;;13.10;99.90;;;;;;5094403;28;19946;-77
2021/05/06 08:50:27;;;;;;;;;;;13.00;99.90;;;;;;5096176;28;19912;-77
2021/05/06 08:52:53;;;;;;;;;;;13.40;99.90;;;;;;5090153;28;19908;-77
2021/05/06 08:55:19;;;;;;;;;;;13.70;99.90;;;;;;5090325;28;19911;-78
2021/05/06 08:57:44;;;;;;;;;;;13.70;99.90;;;;;;5097325;28;19904;-78
2021/05/06 09:00:10;;;;;;;;;;;13.40;99.90;;;;;;5095110;28;19930;-77
2021/05/06 09:02:36;;;;;;;;;;;13.30;99.90;;;;;;5085931;28;20280;-77
2021/05/06 09:05:06;;;;;;;;;;;13.20;99.90;;;;;;5096520;28;19908;-78
2021/05/06 09:07:31;;;;;;;;;;;13.10;99.90;;;;;;5096376;28;19908;-77
2021/05/06 09:09:57;;;;;;;;;;;12.90;99.90;;;;;;5096845;28;19908;-77
2021/05/06 09:12:37;;;;;;;;;;;12.90;99.90;;;;;;5102398;28;19908;-78
2021/05/06 09:15:13;;;;;;;;;;;12.80;99.90;;;;;;5107854;28;19911;-77
2021/05/06 09:17:38;;;;;;;;;;;12.60;99.90;;;;;;5106558;28;19920;-77
2021/05/06 09:20:10;;;;;;;;;;;12.20;99.90;;;;;;5108290;28;19916;-78
2021/05/06 09:22:37;;;;;;;;;;;12.20;99.90;;;;;;5099442;28;19965;-78
2021/05/06 09:25:22;;;;;;;;;;;12.20;99.90;;;;;;5096044;28;20352;-78
2021/05/06 09:28:02;;;;;;;;;;;12.00;99.90;;;;;;5094470;28;19912;-78
2021/05/06 09:30:32;;;;;;;;;;;11.60;99.90;;;;;;5094830;28;20398;-78
2021/05/06 09:33:08;;;;;;;;;;;10.80;99.90;;;;;;5093999;28;20316;-78
2021/05/06 09:35:44;;;;;;;;;;;9.90;99.90;;;;;;5095207;28;19930;-78
2021/05/06 09:38:22;;;;;;;;;;;9.30;99.90;;;;;;5094415;28;19907;-77
2021/05/06 09:40:48;;;;;;;;;;;8.80;99.90;;;;;;5095766;28;19957;-77
2021/05/06 09:43:29;;;;;;;;;;;8.30;99.90;;;;;;5092912;28;19915;-75
2021/05/06 09:45:55;;;;;;;;;;;7.70;99.90;;;;;;5094462;28;20348;-75
2021/05/06 09:48:21;;;;;;;;;;;7.30;99.90;;;;;;5093154;28;19915;-75
2021/05/06 09:50:48;;;;;;;;;;;7.10;99.90;;;;;;5095251;28;20014;-74
2021/05/06 09:53:15;;;;;;;;;;;7.10;99.90;;;;;;5092649;28;20357;-75
2021/05/06 09:55:43;;;;;;;;;;;7.10;99.90;;;;;;5094445;28;19957;-75
2021/05/06 09:58:14;;;;;;;;;;;7.10;99.90;;;;;;5094528;28;19912;-75
2021/05/06 10:00:40;;;;;;;;;;;7.10;99.90;;;;;;5089648;28;20372;-75
2021/05/06 10:03:09;;;;;;;;;;;7.20;99.90;;;;;;5088217;28;20352;-75
2021/05/06 10:05:36;;;;;;;;;;;7.20;99.90;;;;;;5095083;28;19908;-75
2021/05/06 10:08:02;;;;;;;;;;;7.30;99.90;;;;;;5093188;28;19911;-75
2021/05/06 10:10:27;;;;;;;;;;;7.30;99.90;;;;;;5093109;28;19957;-75
2021/05/06 10:12:53;;;;;;;;;;;7.20;99.90;;;;;;5092192;28;20356;-75
2021/05/06 10:15:18;;;;;;;;;;;7.20;99.90;;;;;;5093824;28;19912;-75
2021/05/06 10:17:44;;;;;;;;;;;7.20;99.90;;;;;;5093145;28;19916;-75
2021/05/06 10:20:10;;;;;;;;;;;7.30;99.90;;;;;;5094194;28;19947;-75
2021/05/06 10:22:35;;;;;;;;;;;7.20;99.90;;;;;;5093675;28;20435;-76
2021/05/06 10:25:03;;;;;;;;;;;7.10;99.90;;;;;;5093212;28;19914;-75
2021/05/06 10:27:28;;;;;;;;;;;6.80;99.90;;;;;;5093306;28;19912;-76
2021/05/06 10:29:57;;;;;;;;;;;6.60;99.90;;;;;;5094752;28;19912;-76
2021/05/06 10:32:26;;;;;;;;;;;6.40;99.90;;;;;;5093083;28;19908;-75
2021/05/06 10:34:56;;;;;;;;;;;6.20;99.90;;;;;;5093052;28;19931;-75
2021/05/06 10:37:32;;;;;;;;;;;6.20;99.90;;;;;;5091800;28;19915;-75
2021/05/06 10:39:58;;;;;;;;;;;6.20;99.90;;;;;;5092947;28;19908;-75
2021/05/06 10:42:32;;;;;;;;;;;6.20;99.90;;;;;;5091594;28;19908;-75
2021/05/06 10:45:12;;;;;;;;;;;6.20;99.90;;;;;;5074152;28;20030;-76
2021/05/06 10:47:38;;;;;;;;;;;6.20;99.90;;;;;;5092283;28;19908;-75
2021/05/06 10:50:07;;;;;;;;;;;6.30;99.90;;;;;;5094612;28;19919;-75
2021/05/06 10:52:36;;;;;;;;;;;6.40;99.90;;;;;;5092141;28;19908;-74
2021/05/06 10:55:01;;;;;;;;;;;6.40;99.90;;;;;;5074864;28;19908;-75
2021/05/06 10:57:28;;;;;;;;;;;6.60;99.90;;;;;;5076998;28;19915;-74
2021/05/06 10:59:55;;;;;;;;;;;6.70;99.90;;;;;;5094223;28;20352;-74
2021/05/06 11:02:39;;;;;;;;;;;6.80;99.90;;;;;;5097263;28;19973;-74
2021/05/06 11:05:18;;;;;;;;;;;7.00;99.90;;;;;;5094714;28;19914;-74
2021/05/06 11:08:02;;;;;;;;;;;7.10;99.90;;;;;;5094642;28;20053;-74
2021/05/06 11:10:28;;;;;;;;;;;7.20;99.90;;;;;;5094987;28;19919;-73
2021/05/06 11:12:57;;;;;;;;;;;7.40;99.90;;;;;;5092724;28;19908;-74
2021/05/06 11:15:24;;;;;;;;;;;7.60;99.90;;;;;;5093066;28;19915;-73
2021/05/06 11:17:50;;;;;;;;;;;7.70;99.90;;;;;;5092717;28;19923;-73
2021/05/06 11:20:16;;;;;;;;;;;7.90;99.90;;;;;;5094203;28;19998;-73
2021/05/06 11:22:41;;;;;;;;;;;8.00;99.90;;;;;;5092961;28;19915;-73
2021/05/06 11:25:27;;;;;;;;;;;7.90;99.90;;;;;;5092934;28;19930;-73
2021/05/06 11:27:53;;;;;;;;;;;8.00;99.90;;;;;;5088819;28;19908;-73
2021/05/06 11:30:30;;;;;;;;;;;8.10;99.90;;;;;;5092677;28;20010;-73
2021/05/06 11:32:56;;;;;;;;;;;8.20;99.90;;;;;;5092979;28;20007;-73
2021/05/06 11:35:21;;;;;;;;;;;8.30;99.90;;;;;;5092252;28;19951;-72
2021/05/06 11:37:53;;;;;;;;;;;8.30;99.90;;;;;;5092636;28;19953;-73
2021/05/06 11:40:26;;;;;;;;;;;8.30;99.90;;;;;;5086660;28;19912;-73
2021/05/06 11:42:53;;;;;;;;;;;8.30;99.90;;;;;;5072608;28;19938;-72
2021/05/06 11:45:27;;;;;;;;;;;8.40;99.90;;;;;;5083773;28;19919;-73
2021/05/06 11:47:53;;;;;;;;;;;8.40;99.90;;;;;;5089714;28;19908;-73
2021/05/06 11:50:19;;;;;;;;;;;8.40;99.90;;;;;;5093504;28;19912;-73
2021/05/06 11:52:45;;;;;;;;;;;8.30;99.90;;;;;;5095743;28;19938;-73
2021/05/06 11:55:25;;;;;;;;;;;8.30;99.90;;;;;;5096537;28;20003;-73
2021/05/06 11:57:50;;;;;;;;;;;8.30;99.90;;;;;;5095121;28;19915;-74
2021/05/06 12:00:16;;;;;;;;;;;8.30;99.90;;;;;;5096134;28;20276;-74
2021/05/06 12:02:42;;;;;;;;;;;8.30;99.90;;;;;;5096680;28;20364;-73
2021/05/06 12:05:07;;;;;;;;;;;8.30;99.90;;;;;;5097668;28;19908;-72
2021/05/06 12:07:33;;;;;;;;;;;8.30;99.90;;;;;;5091630;28;20276;-73
2021/05/06 12:10:06;;;;;;;;;;;8.40;99.90;;;;;;5092505;28;20281;-73
2021/05/06 12:12:32;;;;;;;;;;;8.60;99.90;;;;;;5090969;28;20374;-74
2021/05/06 12:14:58;;;;;;;;;;;8.80;99.90;;;;;;5095668;28;19915;-73
2021/05/06 12:17:23;;;;;;;;;;;8.90;99.90;;;;;;5096287;28;20276;-73
2021/05/06 12:19:49;;;;;;;;;;;9.00;99.90;;;;;;5095950;28;19961;-74
2021/05/06 12:22:16;;;;;;;;;;;9.10;99.90;;;;;;5095606;28;19908;-74
2021/05/06 12:24:44;;;;;;;;;;;9.00;99.90;;;;;;5095284;28;19930;-74
2021/05/06 12:27:21;;;;;;;;;;;8.90;99.90;;;;;;5096629;28;19908;-74
2021/05/06 12:29:48;;;;;;;;;;;8.80;99.90;;;;;;5095615;28;19912;-73
2021/05/06 12:32:17;;;;;;;;;;;8.70;99.90;;;;;;5095329;28;19908;-74
2021/05/06 12:34:43;;;;;;;;;;;8.60;99.90;;;;;;5096173;28;19908;-74
2021/05/06 12:37:09;;;;;;;;;;;8.50;99.90;;;;;;5095115;28;19919;-75
2021/05/06 12:39:35;;;;;;;;;;;8.40;99.90;;;;;;5095215;28;19915;-74
2021/05/06 12:42:04;;;;;;;;;;;8.50;99.90;;;;;;5095645;28;20280;-73
2021/05/06 12:44:36;;;;;;;;;;;8.50;99.90;;;;;;5095747;28;19915;-73
2021/05/06 12:47:21;;;;;;;;;;;8.50;99.90;;;;;;5094957;28;19915;-72
2021/05/06 12:49:48;;;;;;;;;;;8.70;99.90;;;;;;5113196;28;19912;-76
2021/05/06 12:52:26;;;;;;;;;;;9.00;99.90;;;;;;5115926;28;19960;-74
2021/05/06 12:54:52;;;;;;;;;;;9.30;99.90;;;;;;5117024;28;19908;-73
2021/05/06 12:57:18;;;;;;;;;;;9.50;99.90;;;;;;5117436;28;19911;-74
2021/05/06 12:59:48;;;;;;;;;;;9.70;99.90;;;;;;5117480;28;19914;-72
2021/05/06 13:02:14;;;;;;;;;;;9.90;99.90;;;;;;5100955;28;19919;-73
2021/05/06 13:04:40;;;;;;;;;;;10.20;99.90;;;;;;5099454;28;19908;-74
2021/05/06 13:07:06;;;;;;;;;;;10.50;99.90;;;;;;5098729;28;19937;-74
2021/05/06 13:09:38;;;;;;;;;;;10.50;99.90;;;;;;5099979;28;19911;-74
2021/05/06 13:12:11;;;;;;;;;;;10.70;99.90;;;;;;5097383;28;19908;-74
2021/05/06 13:14:46;;;;;;;;;;;10.80;99.90;;;;;;5095967;28;19914;-74
2021/05/06 13:17:22;;;;;;;;;;;11.00;99.90;;;;;;5095063;28;20370;-75
2021/05/06 13:19:47;;;;;;;;;;;10.90;99.90;;;;;;5094310;28;19908;-74
2021/05/06 13:22:13;;;;;;;;;;;10.90;99.90;;;;;;5091285;28;19907;-75
2021/05/06 13:24:39;;;;;;;;;;;10.90;99.90;;;;;;5082335;28;19951;-74
2021/05/06 13:27:12;;;;;;;;;;;10.90;99.90;;;;;;5084462;28;19916;-75
2021/05/06 13:29:45;;;;;;;;;;;11.20;99.90;;;;;;5096079;28;19930;-74
2021/05/06 13:32:10;;;;;;;;;;;11.50;99.90;;;;;;5095172;28;19912;-75
2021/05/06 13:34:36;;;;;;;;;;;11.80;99.90;;;;;;5094202;28;19915;-73
2021/05/06 13:37:03;;;;;;;;;;;11.90;99.90;;;;;;5094436;28;19908;-73
2021/05/06 13:39:32;;;;;;;;;;;11.90;99.90;;;;;;5091664;28;19974;-74
2021/05/06 13:41:57;;;;;;;;;;;12.10;99.90;;;;;;5095731;28;19915;-75
2021/05/06 13:44:24;;;;;;;;;;;12.20;99.90;;;;;;5094797;28;19904;-75
2021/05/06 13:46:54;;;;;;;;;;;12.30;99.90;;;;;;5093885;28;20272;-75
2021/05/06 13:49:20;;;;;;;;;;;12.40;99.90;;;;;;5095503;28;19911;-76
2021/05/06 13:51:46;;;;;;;;;;;12.50;99.90;;;;;;5094804;28;19904;-75
2021/05/06 13:54:12;;;;;;;;;;;12.80;99.90;;;;;;5092895;28;19954;-74
2021/05/06 13:56:37;;;;;;;;;;;12.70;99.90;;;;;;5093951;28;19912;-75
2021/05/06 13:59:03;;;;;;;;;;;13.00;99.90;;;;;;5094176;28;19908;-74
2021/05/06 14:01:29;;;;;;;;;;;12.90;99.90;;;;;;5094235;28;19908;-76
2021/05/06 14:03:56;;;;;;;;;;;12.80;99.90;;;;;;5093403;28;20371;-75
2021/05/06 14:06:21;;;;;;;;;;;12.60;99.90;;;;;;5093926;28;20356;-75
2021/05/06 14:08:47;;;;;;;;;;;12.40;99.90;;;;;;5093506;28;20002;-73
2021/05/06 14:11:13;;;;;;;;;;;12.30;99.90;;;;;;5092728;28;19969;-74
2021/05/06 14:13:39;;;;;;;;;;;12.10;99.90;;;;;;5092930;28;19912;-74
2021/05/06 14:16:05;;;;;;;;;;;12.00;99.90;;;;;;5093025;28;19998;-74
2021/05/06 14:18:30;;;;;;;;;;;11.60;99.90;;;;;;5093344;28;20008;-74
2021/05/06 14:21:03;;;;;;;;;;;11.80;99.90;;;;;;5093423;28;19908;-74
2021/05/06 14:23:30;;;;;;;;;;;12.00;99.90;;;;;;5092257;28;19947;-75
2021/05/06 14:25:56;;;;;;;;;;;12.10;99.90;;;;;;5093644;28;19951;-76
2021/05/06 14:28:22;;;;;;;;;;;12.40;99.90;;;;;;5094499;28;20379;-76
2021/05/06 14:30:48;;;;;;;;;;;12.40;99.90;;;;;;5095451;28;19911;-75
2021/05/06 14:33:13;;;;;;;;;;;12.70;99.90;;;;;;5092857;28;19908;-75
2021/05/06 14:35:39;;;;;;;;;;;12.90;99.90;;;;;;5092828;28;19907;-75
2021/05/06 14:38:08;;;;;;;;;;;13.10;99.90;;;;;;5092374;28;19908;-75
2021/05/06 14:40:33;;;;;;;;;;;13.40;99.90;;;;;;5093742;28;19904;-75
2021/05/06 14:42:59;;;;;;;;;;;13.70;99.90;;;;;;5094427;28;19904;-75
2021/05/06 14:45:24;;;;;;;;;;;13.90;99.90;;;;;;5092450;28;20348;-75
2021/05/06 14:47:50;;;;;;;;;;;13.60;99.90;;;;;;5092270;28;19912;-75
2021/05/06 14:50:16;;;;;;;;;;;13.20;99.90;;;;;;5088533;28;20003;-75
2021/05/06 14:52:41;;;;;;;;;;;13.10;99.90;;;;;;5092544;28;19931;-74
2021/05/06 14:55:09;;;;;;;;;;;13.40;99.90;;;;;;5092609;28;19915;-75
2021/05/06 14:57:34;;;;;;;;;;;13.20;99.90;;;;;;5093087;28;19957;-75
2021/05/06 15:00:00;;;;;;;;;;;12.90;99.90;;;;;;5093851;28;19939;-74
2021/05/06 15:02:25;;;;;;;;;;;12.90;99.90;;;;;;5092086;28;20395;-74
2021/05/06 15:04:51;;;;;;;;;;;12.70;99.90;;;;;;5093331;28;19919;-75
2021/05/06 15:07:16;;;;;;;;;;;12.50;99.90;;;;;;5093395;28;19998;-76
2021/05/06 15:09:42;;;;;;;;;;;12.30;99.90;;;;;;5093557;28;19969;-75
2021/05/06 15:12:08;;;;;;;;;;;12.00;99.90;;;;;;5091725;28;19952;-75
2021/05/06 15:14:33;;;;;;;;;;;12.00;99.90;;;;;;5092733;28;19914;-76
2021/05/06 15:16:59;;;;;;;;;;;12.10;99.90;;;;;;5090909;28;19981;-75
2021/05/06 15:19:26;;;;;;;;;;;12.10;99.90;;;;;;5092201;28;19908;-74
2021/05/06 15:21:51;;;;;;;;;;;11.90;99.90;;;;;;5092279;28;20029;-75
2021/05/06 15:24:16;;;;;;;;;;;11.70;99.90;;;;;;5093090;28;20341;-75
2021/05/06 15:26:42;;;;;;;;;;;11.40;99.90;;;;;;5094287;28;19915;-76
2021/05/06 15:29:07;;;;;;;;;;;11.20;99.90;;;;;;5095727;28;20253;-76
2021/05/06 15:31:35;;;;;;;;;;;11.20;99.90;;;;;;5094935;28;20291;-75
2021/05/06 15:34:01;;;;;;;;;;;11.20;99.90;;;;;;5095607;28;19907;-76
2021/05/06 15:36:29;;;;;;;;;;;11.10;99.90;;;;;;5092506;28;19907;-75
2021/05/06 15:38:54;;;;;;;;;;;11.10;99.90;;;;;;5093482;28;19927;-75
2021/05/06 15:41:20;;;;;;;;;;;10.90;99.90;;;;;;5093634;28;19911;-75
2021/05/06 15:43:45;;;;;;;;;;;10.70;99.90;;;;;;5091385;28;19908;-74
2021/05/06 15:46:11;;;;;;;;;;;10.50;99.90;;;;;;5092784;28;19904;-74
2021/05/06 15:48:37;;;;;;;;;;;10.30;99.90;;;;;;5092793;28;19908;-74
2021/05/06 15:51:03;;;;;;;;;;;10.00;99.90;;;;;;5092249;28;19978;-74
2021/05/06 15:53:30;;;;;;;;;;;9.90;99.90;;;;;;5090555;28;19919;-74
2021/05/06 15:55:56;;;;;;;;;;;9.90;99.90;;;;;;5092542;28;19908;-74
2021/05/06 15:58:21;;;;;;;;;;;9.90;99.90;;;;;;5090774;28;19915;-74
2021/05/06 16:00:47;;;;;;;;;;;9.90;99.90;;;;;;5092485;28;20394;-74
2021/05/06 16:03:15;;;;;;;;;;;9.90;99.90;;;;;;5092243;28;19930;-74
2021/05/06 16:05:45;;;;;;;;;;;9.90;99.90;;;;;;5091592;28;19908;-74
2021/05/06 16:08:11;;;;;;;;;;;9.90;99.90;;;;;;5090870;28;19958;-74
2021/05/06 16:10:36;;;;;;;;;;;9.80;99.90;;;;;;5091163;28;19951;-74
2021/05/06 16:13:02;;;;;;;;;;;9.80;99.90;;;;;;5093467;28;19908;-74
2021/05/06 16:15:28;;;;;;;;;;;9.80;99.90;;;;;;5092333;28;19912;-76
2021/05/06 16:17:54;;;;;;;;;;;9.80;99.90;;;;;;5085289;28;20019;-74
2021/05/06 16:20:28;;;;;;;;;;;9.80;99.90;;;;;;5092413;28;20403;-75
2021/05/06 16:22:53;;;;;;;;;;;9.80;99.90;;;;;;5090827;28;19915;-74
2021/05/06 16:25:19;;;;;;;;;;;9.80;99.90;;;;;;5091876;28;19908;-74
2021/05/06 16:27:45;;;;;;;;;;;9.70;99.90;;;;;;5092511;28;20007;-75
2021/05/06 16:30:11;;;;;;;;;;;9.60;99.90;;;;;;5091395;28;19934;-75
2021/05/06 16:32:38;;;;;;;;;;;9.50;99.90;;;;;;5090973;28;19998;-75
2021/05/06 16:35:07;;;;;;;;;;;9.40;99.90;;;;;;5091354;28;20342;-75
2021/05/06 16:43:09;;;;;;;;;;;9.10;99.90;;;;;;5096810;28;20370;-74
2021/05/06 16:45:31;;;;;;;;;;;9.00;99.90;;;;;;5095796;28;19973;-75
2021/05/06 16:47:56;;;;;;;;;;;9.00;99.90;;;;;;5095203;28;19907;-74
2021/05/06 16:50:22;;;;;;;;;;;8.90;99.90;;;;;;5093860;28;19920;-74
2021/05/06 16:52:48;;;;;;;;;;;8.90;99.90;;;;;;5095891;28;19935;-74
2021/05/06 16:55:15;;;;;;;;;;;8.90;99.90;;;;;;5093970;28;19960;-74
2021/05/06 16:57:40;;;;;;;;;;;8.90;99.90;;;;;;5094837;28;19907;-75
2021/05/06 17:00:06;;;;;;;;;;;8.90;99.90;;;;;;5091070;28;20275;-75
2021/05/06 17:02:32;;;;;;;;;;;8.80;99.90;;;;;;5092421;28;19915;-73
2021/05/06 17:04:58;;;;;;;;;;;8.80;99.90;;;;;;5094098;28;19942;-75
2021/05/06 17:07:23;;;;;;;;;;;8.80;99.90;;;;;;5094599;28;19916;-75
2021/05/06 17:09:49;;;;;;;;;;;8.90;99.90;;;;;;5096131;28;20402;-75
2021/05/06 17:12:14;;;;;;;;;;;8.90;99.90;;;;;;5095995;28;19943;-76
2021/05/06 17:14:40;;;;;;;;;;;8.90;99.90;;;;;;5095174;28;20006;-76
2021/05/06 17:17:06;;;;;;;;;;;8.80;99.90;;;;;;5082842;28;20348;-76
2021/05/06 17:19:31;;;;;;;;;;;8.90;99.90;;;;;;5096109;28;19994;-76
2021/05/06 17:21:57;;;;;;;;;;;8.80;99.90;;;;;;5094893;28;19915;-76
2021/05/06 17:24:24;;;;;;;;;;;8.90;99.90;;;;;;5096634;28;19915;-76
2021/05/06 17:26:50;;;;;;;;;;;8.90;99.90;;;;;;5095972;28;19911;-77
2021/05/06 17:29:15;;;;;;;;;;;8.90;99.90;;;;;;5094703;28;20364;-76
2021/05/06 17:31:41;;;;;;;;;;;8.90;99.90;;;;;;5096123;28;19918;-76
2021/05/06 17:34:06;;;;;;;;;;;8.90;99.90;;;;;;5096908;28;19947;-76
2021/05/06 17:36:32;;;;;;;;;;;9.10;99.90;;;;;;5099833;28;20272;-78
2021/05/06 17:38:58;;;;;;;;;;;9.30;99.90;;;;;;5100395;28;19919;-76
2021/05/06 17:41:24;;;;;;;;;;;9.60;99.90;;;;;;5099207;28;19908;-77